createdAt,value
2017-11-09T00:03:03.940Z,23.30
2017-11-09T00:05:37.286Z,23.23
2017-11-09T00:08:04.914Z,25.50
2017-11-09T00:10:32.533Z,24.27
2017-11-09T00:13:00.263Z,24.23
2017-11-09T00:15:27.949Z,25.73
2017-11-09T00:17:55.567Z,27.07
2017-11-09T00:20:23.238Z,29.53
2017-11-09T00:22:50.862Z,30.03
2017-11-09T00:25:18.545Z,27.20
2017-11-09T00:27:46.214Z,26.10
2017-11-09T00:30:13.901Z,25.90
2017-11-09T00:32:41.582Z,25.90
2017-11-09T00:35:09.258Z,25.93
2017-11-09T00:37:36.952Z,25.60
2017-11-09T00:40:04.680Z,24.83
2017-11-09T00:42:32.352Z,25.80
2017-11-09T00:44:59.984Z,38.97
2017-11-09T00:47:27.607Z,32.53
2017-11-09T00:49:55.277Z,30.90
2017-11-09T00:52:22.969Z,28.57
2017-11-09T00:54:50.577Z,25.90
2017-11-09T00:57:18.247Z,25.37
2017-11-09T00:59:45.862Z,22.67
2017-11-09T01:02:13.542Z,24.97
2017-11-09T01:04:41.214Z,24.20
2017-11-09T01:07:08.893Z,23.13
2017-11-09T01:09:36.569Z,25.67
2017-11-09T01:12:04.248Z,26.80
2017-11-09T01:14:31.863Z,23.93
2017-11-09T01:16:59.472Z,26.23
2017-11-09T01:19:27.131Z,26.37
2017-11-09T01:21:54.753Z,25.33
2017-11-09T01:24:22.368Z,22.77
2017-11-09T01:26:50.060Z,25.83
2017-11-09T01:29:17.680Z,25.93
2017-11-09T01:31:45.365Z,28.37
2017-11-09T01:34:13.026Z,29.37
2017-11-09T01:36:40.714Z,29.17
2017-11-09T01:39:08.401Z,30.20
2017-11-09T01:41:36.136Z,31.10
2017-11-09T01:44:03.752Z,30.63
2017-11-09T01:46:31.384Z,34.10
2017-11-09T01:48:59.064Z,29.57
2017-11-09T01:51:26.694Z,27.50
2017-11-09T01:53:54.381Z,27.23
2017-11-09T01:56:22.036Z,28.57
2017-11-09T01:58:49.657Z,32.70
2017-11-09T02:01:17.283Z,32.10
2017-11-09T02:03:44.953Z,34.97
2017-11-09T02:06:12.633Z,32.00
2017-11-09T02:08:40.260Z,30.27
2017-11-09T02:11:07.932Z,32.13
2017-11-09T02:13:35.553Z,32.67
2017-11-09T02:16:03.175Z,33.23
2017-11-09T02:18:30.835Z,35.80
2017-11-09T02:20:58.521Z,35.83
2017-11-09T02:23:26.206Z,31.97
2017-11-09T02:25:53.896Z,29.53
2017-11-09T02:28:21.592Z,30.07
2017-11-09T02:30:49.285Z,32.33
2017-11-09T02:33:16.992Z,31.47
2017-11-09T02:35:44.625Z,32.27
2017-11-09T02:38:12.277Z,31.33
2017-11-09T02:40:39.947Z,29.57
2017-11-09T02:43:07.570Z,39.13
2017-11-09T02:45:35.212Z,37.23
2017-11-09T02:48:02.909Z,31.90
2017-11-09T02:50:30.533Z,29.77
2017-11-09T02:52:58.409Z,30.87
2017-11-09T02:55:26.091Z,32.90
2017-11-09T02:57:53.724Z,32.60
2017-11-09T03:00:21.418Z,32.70
2017-11-09T03:02:49.100Z,30.70
2017-11-09T03:05:16.723Z,36.50
2017-11-09T03:07:44.412Z,33.70
2017-11-09T03:10:12.093Z,37.17
2017-11-09T03:12:39.712Z,37.13
2017-11-09T03:15:07.333Z,36.70
2017-11-09T03:17:35.017Z,35.67
2017-11-09T03:20:02.655Z,35.47
2017-11-09T03:22:30.277Z,38.20
2017-11-09T03:24:57.960Z,37.07
2017-11-09T03:27:25.646Z,35.87
2017-11-09T03:29:53.320Z,37.50
2017-11-09T03:32:20.986Z,38.87
2017-11-09T03:34:48.605Z,35.30
2017-11-09T03:37:16.226Z,38.53
2017-11-09T03:39:43.944Z,39.07
2017-11-09T03:42:11.553Z,39.43
2017-11-09T03:44:39.168Z,39.07
2017-11-09T03:47:06.937Z,39.70
2017-11-09T03:49:34.552Z,42.47
2017-11-09T03:52:02.194Z,37.80
2017-11-09T03:54:29.930Z,43.97
2017-11-09T03:56:57.547Z,41.67
2017-11-09T03:59:25.163Z,41.37
2017-11-09T04:01:52.833Z,36.10
2017-11-09T04:04:20.448Z,41.87
2017-11-09T04:06:48.071Z,37.97
2017-11-09T04:09:15.743Z,36.90
2017-11-09T04:11:43.420Z,40.47
2017-11-09T04:14:11.029Z,44.50
2017-11-09T04:16:38.753Z,44.73
2017-11-09T04:19:06.364Z,37.10
2017-11-09T04:21:34.040Z,36.00
2017-11-09T04:24:01.712Z,36.90
2017-11-09T04:26:30.320Z,35.50
2017-11-09T04:28:57.948Z,36.77
2017-11-09T04:31:25.617Z,39.70
2017-11-09T04:33:53.245Z,40.50
2017-11-09T04:36:20.861Z,39.60
2017-11-09T04:38:48.574Z,36.30
2017-11-09T04:41:16.187Z,37.60
2017-11-09T04:43:43.811Z,126.30
2017-11-09T04:46:11.472Z,51.93
2017-11-09T04:48:39.092Z,36.33
2017-11-09T04:51:06.716Z,35.17
2017-11-09T04:53:34.400Z,37.10
2017-11-09T04:56:02.028Z,39.30
2017-11-09T04:58:29.704Z,42.43
2017-11-09T05:00:57.372Z,39.03
2017-11-09T05:03:25.044Z,37.63
2017-11-09T05:05:52.679Z,38.20
2017-11-09T05:08:20.408Z,36.53
2017-11-09T05:10:48.027Z,37.70
2017-11-09T05:13:15.693Z,40.70
2017-11-09T05:15:43.369Z,39.17
2017-11-09T05:18:11.048Z,42.97
2017-11-09T05:20:38.732Z,40.87
2017-11-09T05:23:06.459Z,43.40
2017-11-09T05:25:34.150Z,37.90
2017-11-09T05:28:01.787Z,39.00
2017-11-09T05:30:29.541Z,38.87
2017-11-09T05:32:57.220Z,38.37
2017-11-09T05:35:24.848Z,39.47
2017-11-09T05:37:52.512Z,39.70
2017-11-09T05:40:20.142Z,37.40
2017-11-09T05:42:47.838Z,36.70
2017-11-09T05:45:15.576Z,35.67
2017-11-09T05:47:43.198Z,36.77
2017-11-09T05:50:10.901Z,39.83
2017-11-09T05:52:38.725Z,40.30
2017-11-09T05:55:06.352Z,36.90
2017-11-09T05:57:34.041Z,41.50
2017-11-09T06:00:01.720Z,45.60
2017-11-09T06:02:29.386Z,44.10
2017-11-09T06:04:57.021Z,41.67
2017-11-09T06:07:24.688Z,43.90
2017-11-09T06:09:52.381Z,42.10
2017-11-09T06:12:20.061Z,42.77
2017-11-09T06:14:47.805Z,42.13
2017-11-09T06:17:15.433Z,42.40
2017-11-09T06:19:43.046Z,42.97
2017-11-09T06:22:10.769Z,43.07
2017-11-09T06:24:38.388Z,45.53
2017-11-09T06:27:06.013Z,46.97
2017-11-09T06:29:33.852Z,43.40
2017-11-09T06:32:01.476Z,43.83
2017-11-09T06:34:29.101Z,47.67
2017-11-09T06:36:56.773Z,44.83
2017-11-09T06:39:24.459Z,44.93
2017-11-09T06:41:52.079Z,41.00
2017-11-09T06:44:19.757Z,37.70
2017-11-09T06:46:47.377Z,38.07
2017-11-09T06:49:14.987Z,34.70
2017-11-09T06:51:42.660Z,33.43
2017-11-09T06:54:10.292Z,34.13
2017-11-09T06:56:37.995Z,35.37
2017-11-09T06:59:05.682Z,34.60
2017-11-09T07:01:33.303Z,33.73
2017-11-09T07:04:00.930Z,36.97
2017-11-09T07:06:28.601Z,35.03
2017-11-09T07:08:56.245Z,37.27
2017-11-09T07:11:23.864Z,36.83
2017-11-09T07:13:51.536Z,34.80
2017-11-09T07:16:19.224Z,32.90
2017-11-09T07:18:46.913Z,36.00
2017-11-09T07:21:14.601Z,32.30
2017-11-09T07:23:42.228Z,34.67
2017-11-09T07:26:09.866Z,31.60
2017-11-09T07:28:37.709Z,33.43
2017-11-09T07:31:05.353Z,33.83
2017-11-09T07:33:33.040Z,31.27
2017-11-09T07:36:00.729Z,29.67
2017-11-09T07:38:28.350Z,28.73
2017-11-09T07:40:56.021Z,28.90
2017-11-09T07:43:23.704Z,30.17
2017-11-09T07:45:51.335Z,31.77
2017-11-09T07:48:18.956Z,30.40
2017-11-09T07:50:46.646Z,32.30
2017-11-09T07:53:14.268Z,34.47
2017-11-09T07:55:41.884Z,32.77
2017-11-09T07:58:09.581Z,31.03
2017-11-09T08:00:37.280Z,34.07
2017-11-09T08:03:04.906Z,35.00
2017-11-09T08:05:32.590Z,38.53
2017-11-09T08:08:00.276Z,42.10
2017-11-09T08:10:27.913Z,36.13
2017-11-09T08:12:55.605Z,34.20
2017-11-09T08:15:23.230Z,29.27
2017-11-09T08:17:50.869Z,29.00
2017-11-09T08:20:18.554Z,28.07
2017-11-09T08:22:46.184Z,29.67
2017-11-09T08:25:16.640Z,29.13
2017-11-09T08:27:46.057Z,28.17
2017-11-09T08:30:14.088Z,28.90
2017-11-09T08:32:46.328Z,27.70
2017-11-09T08:35:14.019Z,27.13
2017-11-09T08:37:41.656Z,26.77
2017-11-09T08:40:09.289Z,25.80
2017-11-09T08:42:36.968Z,29.40
2017-11-09T08:45:04.588Z,30.67
2017-11-09T08:47:32.217Z,27.13
2017-11-09T08:50:00.065Z,27.60
2017-11-09T08:52:27.703Z,28.70
2017-11-09T08:54:55.397Z,26.87
2017-11-09T08:57:23.064Z,27.43
2017-11-09T08:59:50.708Z,30.77
2017-11-09T09:02:18.337Z,30.20
2017-11-09T09:04:46.107Z,31.30
2017-11-09T09:07:13.749Z,28.70
2017-11-09T09:09:41.383Z,29.80
2017-11-09T09:12:09.128Z,30.93
2017-11-09T09:14:36.807Z,30.80
2017-11-09T09:17:04.500Z,29.57
2017-11-09T09:19:32.228Z,32.27
2017-11-09T09:22:02.425Z,30.37
2017-11-09T09:24:30.169Z,29.03
2017-11-09T09:29:58.018Z,27.43
2017-11-09T09:32:26.162Z,27.50
2017-11-09T09:35:13.061Z,27.50
2017-11-09T09:37:44.637Z,27.73
2017-11-09T09:40:14.432Z,24.73
2017-11-09T09:42:42.125Z,24.30
2017-11-09T09:45:09.937Z,25.37
2017-11-09T09:47:37.698Z,25.67
2017-11-09T09:50:05.471Z,28.77
2017-11-09T09:52:33.177Z,27.20
2017-11-09T09:55:00.875Z,25.73
2017-11-09T09:57:28.585Z,27.03
2017-11-09T09:59:56.328Z,29.23
2017-11-09T10:02:24.026Z,27.03
2017-11-09T10:04:51.673Z,25.83
2017-11-09T10:07:19.418Z,27.10
2017-11-09T10:09:47.177Z,29.33
2017-11-09T10:12:14.935Z,28.00
2017-11-09T10:14:42.617Z,26.50
2017-11-09T10:17:10.300Z,24.23
2017-11-09T10:19:37.993Z,32.13
2017-11-09T10:22:05.681Z,27.47
2017-11-09T10:24:33.304Z,24.63
2017-11-09T10:27:00.936Z,25.53
2017-11-09T10:29:28.678Z,26.37
2017-11-09T10:31:56.314Z,25.17
2017-11-09T10:34:24.016Z,24.63
2017-11-09T10:36:51.701Z,27.90
2017-11-09T10:39:19.320Z,25.90
2017-11-09T10:41:47.053Z,27.80
2017-11-09T10:44:14.725Z,30.40
2017-11-09T10:46:42.357Z,27.50
2017-11-09T10:49:09.989Z,27.47
2017-11-09T10:51:37.677Z,29.33
2017-11-09T10:54:05.315Z,26.57
2017-11-09T10:56:32.956Z,27.87
2017-11-09T10:59:00.702Z,27.20
2017-11-09T11:01:28.337Z,28.60
2017-11-09T11:03:56.038Z,30.17
2017-11-09T11:06:23.788Z,28.43
2017-11-09T11:08:51.421Z,28.80
2017-11-09T11:11:19.129Z,35.57
2017-11-09T11:13:46.803Z,29.27
2017-11-09T11:16:14.445Z,27.77
2017-11-09T11:18:42.086Z,36.10
2017-11-09T11:21:09.766Z,26.80
2017-11-09T11:23:37.405Z,26.73
2017-11-09T11:26:05.025Z,27.23
2017-11-09T11:28:32.693Z,27.10
2017-11-09T11:31:00.321Z,28.47
2017-11-09T11:33:27.940Z,25.97
2017-11-09T11:35:55.615Z,26.10
2017-11-09T11:38:23.240Z,26.00
2017-11-09T11:40:50.864Z,24.90
2017-11-09T11:43:18.536Z,26.23
2017-11-09T11:45:46.173Z,25.10
2017-11-09T11:48:13.800Z,25.17
2017-11-09T11:50:41.486Z,25.40
2017-11-09T11:53:09.106Z,23.00
2017-11-09T11:55:36.750Z,25.60
2017-11-09T11:58:04.420Z,25.17
2017-11-09T12:00:32.064Z,26.77
2017-11-09T12:02:59.765Z,27.03
2017-11-09T12:05:27.500Z,25.90
2017-11-09T12:07:55.124Z,27.00
2017-11-09T12:10:23.701Z,22.03
2017-11-09T12:12:51.372Z,23.90
2017-11-09T12:15:19.051Z,25.70
2017-11-09T12:17:46.674Z,31.53
2017-11-09T12:20:14.358Z,31.13
2017-11-09T12:22:42.045Z,23.77
2017-11-09T12:25:09.748Z,30.23
2017-11-09T12:27:37.426Z,28.03
2017-11-09T12:30:05.074Z,22.40
2017-11-09T12:32:32.780Z,22.20
2017-11-09T12:35:00.461Z,23.30
2017-11-09T12:37:28.153Z,21.53
2017-11-09T12:39:55.849Z,19.60
2017-11-09T12:42:23.582Z,20.63
2017-11-09T12:44:51.369Z,20.27
2017-11-09T12:47:19.122Z,18.47
2017-11-09T12:49:46.894Z,23.13
2017-11-09T12:52:14.521Z,25.77
2017-11-09T12:54:42.153Z,23.03
2017-11-09T12:57:09.882Z,19.60
2017-11-09T12:59:37.980Z,21.70
2017-11-09T13:02:05.625Z,22.40
2017-11-09T13:04:33.354Z,19.53
2017-11-09T13:07:01.043Z,44.03
2017-11-09T13:09:28.668Z,46.27
2017-11-09T13:11:56.461Z,93.83
2017-11-09T13:14:24.184Z,35.43
2017-11-09T13:16:51.859Z,26.17
2017-11-09T13:22:13.428Z,22.20
2017-11-09T13:24:41.100Z,25.40
2017-11-09T13:27:08.784Z,29.10
2017-11-09T13:29:36.457Z,25.23
2017-11-09T13:32:04.293Z,27.03
2017-11-09T13:34:31.964Z,23.67
2017-11-09T13:37:00.357Z,22.00
2017-11-09T13:39:28.030Z,21.57
2017-11-09T13:41:55.687Z,25.10
2017-11-09T13:44:23.380Z,22.27
2017-11-09T13:46:51.064Z,22.73
2017-11-09T13:49:18.682Z,23.03
2017-11-09T13:51:46.313Z,25.10
2017-11-09T13:54:13.991Z,23.90
2017-11-09T13:56:41.620Z,23.13
2017-11-09T13:59:09.243Z,26.70
2017-11-09T14:01:36.975Z,24.40
2017-11-09T14:04:04.617Z,22.67
2017-11-09T14:06:32.259Z,23.30
2017-11-09T14:09:00.010Z,24.50
2017-11-09T14:11:27.640Z,30.30
2017-11-09T14:13:55.330Z,28.50
2017-11-09T14:16:23.024Z,28.00
2017-11-09T14:18:50.718Z,23.83
2017-11-09T14:21:18.343Z,28.20
2017-11-09T14:23:46.160Z,21.10
2017-11-09T14:26:13.788Z,29.20
2017-11-09T14:28:41.473Z,29.73
2017-11-09T14:31:09.157Z,27.60
2017-11-09T14:33:36.787Z,23.97
2017-11-09T14:36:04.416Z,28.43
2017-11-09T14:38:32.101Z,31.53
2017-11-09T14:40:59.729Z,29.13
2017-11-09T14:43:27.413Z,33.27
2017-11-09T14:45:55.143Z,31.10
2017-11-09T14:48:22.771Z,25.23
2017-11-09T14:50:50.401Z,23.13
2017-11-09T14:53:18.089Z,24.30
2017-11-09T14:55:45.719Z,28.27
2017-11-09T14:58:13.336Z,33.10
2017-11-09T15:00:41.083Z,27.90
2017-11-09T15:03:08.712Z,21.60
2017-11-09T15:05:36.388Z,23.80
2017-11-09T15:08:04.216Z,28.57
2017-11-09T15:10:31.891Z,26.13
2017-11-09T15:12:59.572Z,24.77
2017-11-09T15:15:27.254Z,22.97
2017-11-09T15:17:54.913Z,21.77
2017-11-09T15:20:22.646Z,17.37
2017-11-09T15:22:50.441Z,18.47
2017-11-09T15:25:18.132Z,17.87
2017-11-09T15:27:45.773Z,18.70
2017-11-09T15:30:13.561Z,26.40
2017-11-09T15:32:41.255Z,20.10
2017-11-09T15:35:10.785Z,19.93
2017-11-09T15:37:38.456Z,29.23
2017-11-09T15:40:06.139Z,30.03
2017-11-09T15:42:33.772Z,21.93
2017-11-09T15:45:01.448Z,21.90
2017-11-09T15:47:29.084Z,18.90
2017-11-09T15:49:56.712Z,22.53
2017-11-09T15:52:24.384Z,18.57
2017-11-09T15:54:52.017Z,22.33
2017-11-09T15:57:19.637Z,23.37
2017-11-09T15:59:47.326Z,21.90
2017-11-09T16:02:14.952Z,23.50
2017-11-09T16:04:42.673Z,27.83
2017-11-09T16:07:16.139Z,30.23
2017-11-09T16:09:43.817Z,26.97
2017-11-09T16:12:11.430Z,24.57
2017-11-09T16:14:39.250Z,36.87
2017-11-09T16:17:06.873Z,33.03
2017-11-09T16:19:34.496Z,30.93
2017-11-09T16:22:02.159Z,37.37
2017-11-09T16:24:29.788Z,26.10
2017-11-09T16:26:57.456Z,35.57
2017-11-09T16:29:25.126Z,30.17
2017-11-09T16:31:52.752Z,30.07
2017-11-09T16:34:20.377Z,32.90
2017-11-09T16:36:48.046Z,36.50
2017-11-09T16:39:15.688Z,29.33
2017-11-09T16:41:43.378Z,26.83
2017-11-09T16:44:11.049Z,26.13
2017-11-09T16:46:38.674Z,29.77
2017-11-09T16:49:06.301Z,29.70
2017-11-09T16:51:33.996Z,34.00
2017-11-09T16:54:01.659Z,32.70
2017-11-09T16:56:29.273Z,34.57
2017-11-09T16:58:57.009Z,31.60
2017-11-09T17:01:24.621Z,30.70
2017-11-09T17:03:52.244Z,30.80
2017-11-09T17:06:19.927Z,24.67
2017-11-09T17:08:47.630Z,30.00
2017-11-09T17:11:15.327Z,32.60
2017-11-09T17:13:43.011Z,27.60
2017-11-09T17:16:10.641Z,29.93
2017-11-09T17:18:38.326Z,33.27
2017-11-09T17:21:06.011Z,26.00
2017-11-09T17:23:33.644Z,29.60
2017-11-09T17:26:01.279Z,26.57
2017-11-09T17:28:28.960Z,26.60
2017-11-09T17:30:56.632Z,27.30
2017-11-09T17:33:24.322Z,23.37
2017-11-09T17:35:52.218Z,26.10
2017-11-09T17:38:19.919Z,27.67
2017-11-09T17:40:47.601Z,25.73
2017-11-09T17:43:15.309Z,25.87
2017-11-09T17:45:42.991Z,26.47
2017-11-09T17:48:10.609Z,23.07
2017-11-09T17:50:38.357Z,21.73
2017-11-09T17:53:05.982Z,19.47
2017-11-09T17:55:33.657Z,24.67
2017-11-09T17:58:01.329Z,22.73
2017-11-09T18:00:28.961Z,21.97
2017-11-09T18:02:56.648Z,21.90
2017-11-09T18:05:24.392Z,40.43
2017-11-09T18:07:52.019Z,62.40
2017-11-09T18:10:19.697Z,26.47
2017-11-09T18:12:47.377Z,32.50
2017-11-09T18:15:15.106Z,26.43
2017-11-09T18:17:42.744Z,31.63
2017-11-09T18:20:10.433Z,26.17
2017-11-09T18:22:38.111Z,28.07
2017-11-09T18:25:05.729Z,28.47
2017-11-09T18:27:33.557Z,26.70
2017-11-09T18:30:01.180Z,26.03
2017-11-09T18:32:28.813Z,31.40
2017-11-09T18:34:56.557Z,30.10
2017-11-09T18:37:24.176Z,27.03
2017-11-09T18:39:51.805Z,23.40
2017-11-09T18:42:19.543Z,25.50
2017-11-09T18:44:47.225Z,26.27
2017-11-09T18:47:14.964Z,27.07
2017-11-09T18:49:42.770Z,26.43
2017-11-09T18:52:10.438Z,27.50
2017-11-09T18:54:38.057Z,26.90
2017-11-09T18:57:05.729Z,28.60
2017-11-09T18:59:33.375Z,30.73
2017-11-09T19:02:01.000Z,28.33
2017-11-09T19:04:28.712Z,30.87
2017-11-09T19:06:56.343Z,31.40
2017-11-09T19:09:27.682Z,31.40
2017-11-09T19:11:55.476Z,31.10
2017-11-09T19:14:23.112Z,31.67
2017-11-09T19:16:50.795Z,30.67
2017-11-09T19:19:18.484Z,34.70
2017-11-09T19:21:46.105Z,34.50
2017-11-09T19:24:13.793Z,33.20
2017-11-09T19:26:41.525Z,34.60
2017-11-09T19:29:09.152Z,31.70
2017-11-09T19:31:36.776Z,33.93
2017-11-09T19:34:04.453Z,30.67
2017-11-09T19:36:32.072Z,33.97
2017-11-09T19:38:59.704Z,29.17
2017-11-09T19:41:27.441Z,35.27
2017-11-09T19:43:55.057Z,47.93
2017-11-09T19:46:22.703Z,54.77
2017-11-09T19:48:50.489Z,53.70
2017-11-09T19:51:18.121Z,59.60
2017-11-09T19:53:45.749Z,56.40
2017-11-09T19:56:13.437Z,54.53
2017-11-09T19:58:41.063Z,52.07
2017-11-09T20:01:08.700Z,51.60
2017-11-09T20:03:36.385Z,47.70
2017-11-09T20:06:04.100Z,48.97
2017-11-09T20:08:31.781Z,54.40
2017-11-09T20:10:59.448Z,67.33
2017-11-09T20:13:27.093Z,73.13
2017-11-09T20:15:54.725Z,69.20
2017-11-09T20:18:22.453Z,67.30
2017-11-09T20:20:50.081Z,64.80
2017-11-09T20:23:17.703Z,56.50
2017-11-09T20:25:45.368Z,57.40
2017-11-09T20:28:12.991Z,55.13
2017-11-09T20:30:40.610Z,51.40
2017-11-09T20:33:08.293Z,50.03
2017-11-09T20:35:35.920Z,47.87
2017-11-09T20:38:03.613Z,46.77
2017-11-09T20:40:31.336Z,52.07
2017-11-09T20:42:59.043Z,46.53
2017-11-09T20:45:26.728Z,47.20
2017-11-09T20:47:54.461Z,43.93
2017-11-09T20:50:22.084Z,45.17
2017-11-09T20:52:49.773Z,46.10
2017-11-09T20:55:17.527Z,40.93
2017-11-09T20:57:45.154Z,45.80
2017-11-09T21:00:12.787Z,39.60
2017-11-09T21:02:40.625Z,39.50
2017-11-09T21:05:08.250Z,36.50
2017-11-09T21:07:35.881Z,37.70
2017-11-09T21:10:03.565Z,37.60
2017-11-09T21:12:31.204Z,36.87
2017-11-09T21:14:58.823Z,40.23
2017-11-09T21:17:26.501Z,42.33
2017-11-09T21:19:54.135Z,42.40
2017-11-09T21:22:21.765Z,43.10
2017-11-09T21:24:49.538Z,41.40
2017-11-09T21:27:17.218Z,39.03
2017-11-09T21:29:44.837Z,37.57
2017-11-09T21:32:12.670Z,41.03
2017-11-09T21:34:40.289Z,39.07
2017-11-09T21:37:07.919Z,39.20
2017-11-09T21:39:35.656Z,36.47
2017-11-09T21:42:03.280Z,36.70
2017-11-09T21:44:30.900Z,34.60
2017-11-09T21:46:58.625Z,32.30
2017-11-09T21:49:26.309Z,34.40
2017-11-09T21:51:53.937Z,33.40
2017-11-09T21:54:21.608Z,34.73
2017-11-09T21:56:49.281Z,33.07
2017-11-09T21:59:16.926Z,33.60
2017-11-09T22:01:44.593Z,37.40
2017-11-09T22:04:12.225Z,40.63
2017-11-09T22:06:39.847Z,39.70
2017-11-09T22:09:07.581Z,39.00
2017-11-09T22:11:35.260Z,38.60
2017-11-09T22:14:02.894Z,40.37
2017-11-09T22:16:30.560Z,41.70
2017-11-09T22:18:58.191Z,40.90
2017-11-09T22:21:25.870Z,39.93
2017-11-09T22:23:53.543Z,40.70
2017-11-09T22:26:21.232Z,38.60
2017-11-09T22:28:48.906Z,35.60
2017-11-09T22:31:16.584Z,33.60
2017-11-09T22:33:44.269Z,32.40
2017-11-09T22:36:11.888Z,28.43
2017-11-09T22:38:39.571Z,29.83
2017-11-09T22:41:07.186Z,25.20
2017-11-09T22:43:34.813Z,24.03
2017-11-09T22:46:02.593Z,23.93
2017-11-09T22:48:30.216Z,23.27
2017-11-09T22:50:57.893Z,25.97
2017-11-09T22:56:23.755Z,20.70
2017-11-09T22:58:51.485Z,18.33
2017-11-09T23:01:19.194Z,18.13
2017-11-09T23:03:47.025Z,18.90
2017-11-09T23:06:14.750Z,17.80
2017-11-09T23:08:42.428Z,18.77
2017-11-09T23:11:10.166Z,19.53
2017-11-09T23:13:37.885Z,17.00
2017-11-09T23:16:05.516Z,17.97
2017-11-09T23:18:33.188Z,15.33
2017-11-09T23:21:00.932Z,17.07
2017-11-09T23:23:28.543Z,18.97
2017-11-09T23:25:56.172Z,17.80
2017-11-09T23:28:23.849Z,16.73
2017-11-09T23:30:51.472Z,18.47
2017-11-09T23:33:21.868Z,20.57
2017-11-09T23:35:49.602Z,18.50
2017-11-09T23:38:17.213Z,17.57
2017-11-09T23:40:44.888Z,20.13
2017-11-09T23:43:12.568Z,18.83
2017-11-09T23:45:40.183Z,20.50
2017-11-09T23:48:07.801Z,20.20
2017-11-09T23:50:35.526Z,18.97
2017-11-09T23:53:03.163Z,19.57
2017-11-09T23:55:30.774Z,18.53
2017-11-09T23:57:58.549Z,19.70
